Time;durP1;ratioP1;P1;durP2;ratioP2;P2;SDS_P1;SDS_P2;PMS_P1;PMS_P2;Temp;Humidity;BMP_temperature;BMP_pressure;BME280_temperature;BME280_humidity;BME280_pressure;Samples;Min_cycle;Max_cycle;Signal;HPM_P1;HPM_P2
2024/03/08 00:00:23;;;;;;;7.23;6.20;;;9.70;99.90;;;;;;5061494;28;20892;-44
2024/03/08 00:02:53;;;;;;;7.00;6.07;;;9.70;99.90;;;;;;5065799;28;20955;-45
2024/03/08 00:05:23;;;;;;;6.67;6.00;;;9.70;99.90;;;;;;5056797;28;20479;-44
2024/03/08 00:07:56;;;;;;;5.50;4.90;;;9.70;99.90;;;;;;5061306;28;20469;-44
2024/03/08 00:10:24;;;;;;;6.33;5.70;;;9.70;99.90;;;;;;5061909;28;20575;-44
2024/03/08 00:12:55;;;;;;;6.97;5.47;;;9.70;99.90;;;;;;5063310;28;20443;-45
2024/03/08 00:15:24;;;;;;;6.03;5.43;;;9.70;99.90;;;;;;5056254;28;20517;-45
2024/03/08 00:17:53;;;;;;;6.87;6.17;;;9.70;99.90;;;;;;5062433;28;20500;-45
2024/03/08 00:20:25;;;;;;;7.33;6.63;;;9.70;99.90;;;;;;5058165;28;20829;-44
2024/03/08 00:22:57;;;;;;;6.73;5.53;;;9.70;99.90;;;;;;5057853;28;20577;-44
2024/03/08 00:25:26;;;;;;;7.20;6.03;;;9.70;99.90;;;;;;5066548;28;20458;-44
2024/03/08 00:27:56;;;;;;;7.10;6.40;;;9.70;99.90;;;;;;5059235;28;20866;-44
2024/03/08 00:30:26;;;;;;;7.13;6.10;;;9.70;99.90;;;;;;5063370;28;20991;-44
2024/03/08 00:32:55;;;;;;;10.37;7.90;;;9.70;99.90;;;;;;5060955;28;20795;-44
2024/03/08 00:35:26;;;;;;;9.00;6.00;;;9.70;99.90;;;;;;5057311;28;20541;-44
2024/03/08 00:37:57;;;;;;;6.67;5.83;;;9.70;99.90;;;;;;5061186;28;20526;-44
2024/03/08 00:40:26;;;;;;;6.80;5.00;;;9.70;99.90;;;;;;5067690;28;20493;-44
2024/03/08 00:42:57;;;;;;;7.97;6.73;;;9.70;99.90;;;;;;5063585;28;20443;-44
2024/03/08 00:45:25;;;;;;;8.30;5.97;;;9.70;99.90;;;;;;5063170;28;20462;-44
2024/03/08 00:47:56;;;;;;;7.63;6.83;;;9.70;99.90;;;;;;5062581;28;20442;-45
2024/03/08 00:50:26;;;;;;;9.27;7.07;;;9.70;99.90;;;;;;5064743;28;20939;-44
2024/03/08 00:52:57;;;;;;;7.37;5.80;;;9.70;99.90;;;;;;5068159;28;20430;-44
2024/03/08 00:55:26;;;;;;;8.20;6.67;;;9.70;99.90;;;;;;5064974;28;20570;-44
2024/03/08 00:57:55;;;;;;;6.53;5.67;;;9.70;99.90;;;;;;5063265;28;20439;-44
2024/03/08 01:00:27;;;;;;;6.20;5.60;;;9.70;99.90;;;;;;5066325;28;20458;-44
2024/03/08 01:02:56;;;;;;;6.70;5.83;;;9.70;99.90;;;;;;5065493;28;20461;-45
2024/03/08 01:05:25;;;;;;;8.20;6.37;;;9.70;99.90;;;;;;5060185;28;20489;-44
2024/03/08 01:07:56;;;;;;;7.20;5.80;;;9.70;99.90;;;;;;5067058;28;20446;-45
2024/03/08 01:10:24;;;;;;;7.63;6.50;;;9.60;99.90;;;;;;5065412;28;20415;-44
2024/03/08 01:12:54;;;;;;;6.93;6.23;;;9.60;99.90;;;;;;5048278;28;20544;-44
2024/03/08 01:15:23;;;;;;;8.33;7.07;;;9.60;99.90;;;;;;5060650;28;20479;-44
2024/03/08 01:17:52;;;;;;;7.97;6.10;;;9.60;99.90;;;;;;5065504;28;20830;-44
2024/03/08 01:20:21;;;;;;;8.53;6.60;;;9.60;99.90;;;;;;5046996;28;20438;-44
2024/03/08 01:22:50;;;;;;;7.43;6.63;;;9.60;99.90;;;;;;5057448;28;20439;-44
2024/03/08 01:25:22;;;;;;;8.70;6.90;;;9.60;99.90;;;;;;5064489;28;20470;-44
2024/03/08 01:27:51;;;;;;;9.00;7.20;;;9.60;99.90;;;;;;5037990;28;20441;-44
2024/03/08 01:30:23;;;;;;;8.20;6.77;;;9.60;99.90;;;;;;5058330;28;20475;-45
2024/03/08 01:32:54;;;;;;;6.90;6.30;;;9.60;99.90;;;;;;5066727;28;20442;-44
2024/03/08 01:35:26;;;;;;;6.80;6.10;;;9.60;99.90;;;;;;5062578;28;21011;-45
2024/03/08 01:37:55;;;;;;;7.33;6.60;;;9.60;99.90;;;;;;5062451;28;20435;-44
2024/03/08 01:40:25;;;;;;;7.00;6.33;;;9.60;99.90;;;;;;5048703;28;20854;-44
2024/03/08 01:42:56;;;;;;;7.03;6.27;;;9.60;99.90;;;;;;5063477;28;20461;-45
2024/03/08 01:45:27;;;;;;;8.23;6.27;;;9.60;99.90;;;;;;5067157;28;20465;-44
2024/03/08 01:47:57;;;;;;;6.40;5.70;;;9.60;99.90;;;;;;5061952;28;20436;-45
2024/03/08 01:50:26;;;;;;;7.47;6.17;;;9.60;99.90;;;;;;5061324;28;20443;-45
2024/03/08 01:52:59;;;;;;;7.20;6.17;;;9.60;99.90;;;;;;5060856;28;20442;-44
2024/03/08 01:55:29;;;;;;;8.87;6.60;;;9.60;99.90;;;;;;5066428;28;20470;-44
2024/03/08 01:57:58;;;;;;;6.53;5.87;;;9.60;99.90;;;;;;5058000;28;20863;-44
2024/03/08 02:00:29;;;;;;;6.80;6.10;;;9.60;99.90;;;;;;5064334;28;20514;-44
2024/03/08 02:02:58;;;;;;;6.07;5.20;;;9.60;99.90;;;;;;5065745;28;20487;-44
2024/03/08 02:05:27;;;;;;;7.80;6.80;;;9.60;99.90;;;;;;5065346;28;20958;-44
2024/03/08 02:07:57;;;;;;;5.73;5.07;;;9.60;99.90;;;;;;5070490;28;20442;-45
2024/03/08 02:10:26;;;;;;;6.47;5.87;;;9.60;99.90;;;;;;5064244;28;20504;-44
2024/03/08 02:12:57;;;;;;;6.53;5.90;;;9.60;99.90;;;;;;5057782;28;20857;-44
2024/03/08 02:15:25;;;;;;;8.80;7.53;;;9.60;99.90;;;;;;5060692;28;20444;-46
2024/03/08 02:17:56;;;;;;;6.47;5.50;;;9.50;99.90;;;;;;5057147;28;20454;-47
2024/03/08 02:20:30;;;;;;;7.13;6.10;;;9.60;99.90;;;;;;5065060;28;20453;-48
2024/03/08 02:22:58;;;;;;;7.80;6.67;;;9.50;99.90;;;;;;5061734;28;20473;-46
2024/03/08 02:25:27;;;;;;;7.23;6.40;;;9.60;99.90;;;;;;5056692;28;20451;-45
2024/03/08 02:27:55;;;;;;;8.50;5.70;;;9.60;99.90;;;;;;5064609;28;20504;-47
2024/03/08 02:30:29;;;;;;;6.87;6.13;;;9.60;99.90;;;;;;5060032;28;21004;-47
2024/03/08 02:32:57;;;;;;;8.20;6.50;;;9.60;99.90;;;;;;5060791;28;20443;-47
2024/03/08 02:35:27;;;;;;;6.63;5.67;;;9.50;99.90;;;;;;5062082;28;20513;-46
2024/03/08 02:37:58;;;;;;;8.53;7.00;;;9.50;99.90;;;;;;5059899;28;20441;-47
2024/03/08 02:40:26;;;;;;;7.50;6.70;;;9.50;99.90;;;;;;5063206;28;20419;-47
2024/03/08 02:42:55;;;;;;;7.27;6.43;;;9.50;99.90;;;;;;5061108;28;21000;-45
2024/03/08 02:45:24;;;;;;;6.73;6.13;;;9.50;99.90;;;;;;5062479;28;20451;-49
2024/03/08 02:47:55;;;;;;;8.23;7.17;;;9.50;99.90;;;;;;5061844;28;20807;-48
2024/03/08 02:50:25;;;;;;;8.97;7.20;;;9.50;99.90;;;;;;5055050;28;20840;-44
2024/03/08 02:52:53;;;;;;;6.80;6.10;;;9.50;99.90;;;;;;5064024;28;20450;-47
2024/03/08 02:55:26;;;;;;;6.47;5.63;;;9.50;99.90;;;;;;5061023;28;20561;-45
2024/03/08 02:57:57;;;;;;;7.63;6.33;;;9.50;99.90;;;;;;5061921;28;20436;-44
2024/03/08 03:00:27;;;;;;;7.13;5.87;;;9.50;99.90;;;;;;5065403;28;20446;-45
2024/03/08 03:02:56;;;;;;;6.73;6.03;;;9.50;99.90;;;;;;5064239;28;21044;-45
2024/03/08 03:05:26;;;;;;;6.70;6.10;;;9.50;99.90;;;;;;5060136;28;20455;-44
2024/03/08 03:07:58;;;;;;;7.67;6.87;;;9.50;99.90;;;;;;5062632;28;20440;-46
2024/03/08 03:10:27;;;;;;;7.67;6.97;;;9.50;99.90;;;;;;5063864;28;20419;-45
2024/03/08 03:12:56;;;;;;;7.53;5.70;;;9.50;99.90;;;;;;5062693;28;20937;-46
2024/03/08 03:15:26;;;;;;;7.80;6.60;;;9.50;99.90;;;;;;5060622;28;20565;-45
2024/03/08 03:17:56;;;;;;;7.40;5.90;;;9.50;99.90;;;;;;5059075;28;20462;-46
2024/03/08 03:20:26;;;;;;;8.30;6.90;;;9.50;99.90;;;;;;5055878;28;20485;-47
2024/03/08 03:22:57;;;;;;;7.97;6.70;;;9.50;99.90;;;;;;5057352;28;20485;-45
2024/03/08 03:25:28;;;;;;;10.73;8.30;;;9.50;99.90;;;;;;5066524;28;20509;-46
2024/03/08 03:27:58;;;;;;;6.97;6.27;;;9.40;99.90;;;;;;5063597;28;20443;-47
2024/03/08 03:30:26;;;;;;;6.60;5.90;;;9.50;99.90;;;;;;5057028;28;20415;-45
2024/03/08 03:33:00;;;;;;;6.83;6.10;;;9.50;99.90;;;;;;5058652;28;20435;-46
2024/03/08 03:35:30;;;;;;;5.60;5.10;;;9.40;99.90;;;;;;5059746;28;20463;-46
2024/03/08 03:38:06;;;;;;;6.80;6.10;;;9.40;99.90;;;;;;5064615;28;20428;-47
2024/03/08 03:40:36;;;;;;;8.17;5.97;;;9.40;99.90;;;;;;5066973;28;20444;-48
2024/03/08 03:43:09;;;;;;;6.90;6.20;;;9.40;99.90;;;;;;5056895;28;20466;-45
2024/03/08 03:45:42;;;;;;;6.03;5.37;;;9.40;99.90;;;;;;5065954;28;20465;-48
2024/03/08 03:48:11;;;;;;;7.23;6.53;;;9.40;99.90;;;;;;5060087;28;20442;-45
2024/03/08 03:50:42;;;;;;;7.03;6.37;;;9.40;99.90;;;;;;5044295;28;20505;-48
2024/03/08 03:53:11;;;;;;;6.87;6.17;;;9.40;99.90;;;;;;5064560;28;20441;-46
2024/03/08 03:55:39;;;;;;;6.10;5.40;;;9.40;99.90;;;;;;5061733;28;20470;-46
2024/03/08 03:58:13;;;;;;;6.20;5.57;;;9.40;99.90;;;;;;5043152;28;20438;-44
2024/03/08 04:00:42;;;;;;;6.37;5.77;;;9.40;99.90;;;;;;5061392;28;20962;-45
2024/03/08 04:03:12;;;;;;;7.00;6.30;;;9.40;99.90;;;;;;5063755;28;20794;-46
2024/03/08 04:05:42;;;;;;;8.40;7.60;;;9.40;99.90;;;;;;5061364;28;20458;-46
2024/03/08 04:08:12;;;;;;;6.90;6.03;;;9.40;99.90;;;;;;5069927;28;20426;-44
2024/03/08 04:10:41;;;;;;;7.43;6.47;;;9.40;99.90;;;;;;5064926;28;20465;-46
2024/03/08 04:13:15;;;;;;;7.03;5.93;;;9.40;99.90;;;;;;5066176;28;20414;-50
2024/03/08 04:15:44;;;;;;;10.10;7.47;;;9.40;99.90;;;;;;5060921;28;20466;-46
2024/03/08 04:18:18;;;;;;;8.23;7.43;;;9.40;99.90;;;;;;5061038;28;20939;-46
2024/03/08 04:20:46;;;;;;;8.47;6.67;;;9.40;99.90;;;;;;5058403;28;20440;-46
2024/03/08 04:23:14;;;;;;;8.93;7.17;;;9.40;99.90;;;;;;5062603;28;20474;-46
2024/03/08 04:25:43;;;;;;;7.40;6.60;;;9.40;99.90;;;;;;5058549;28;20553;-45
2024/03/08 04:28:13;;;;;;;8.00;6.37;;;9.40;99.90;;;;;;5064600;28;20915;-47
2024/03/08 04:30:42;;;;;;;6.83;6.10;;;9.40;99.90;;;;;;5062004;28;20427;-45
2024/03/08 04:33:12;;;;;;;7.67;6.97;;;9.30;99.90;;;;;;5062316;28;20430;-46
2024/03/08 04:35:42;;;;;;;6.50;5.90;;;9.30;99.90;;;;;;5065462;28;20466;-45
2024/03/08 04:38:12;;;;;;;6.53;5.70;;;9.30;99.90;;;;;;5063476;28;20430;-45
2024/03/08 04:40:42;;;;;;;7.53;6.70;;;9.30;99.90;;;;;;5067653;28;20434;-46
2024/03/08 04:43:14;;;;;;;6.87;6.17;;;9.30;99.90;;;;;;5066597;28;20979;-46
2024/03/08 04:45:43;;;;;;;6.60;5.43;;;9.30;99.90;;;;;;5068655;28;20457;-45
2024/03/08 04:48:12;;;;;;;8.10;6.50;;;9.30;99.90;;;;;;5067380;28;20434;-45
2024/03/08 04:50:41;;;;;;;7.70;6.70;;;9.30;99.90;;;;;;5064827;28;20446;-45
2024/03/08 04:53:12;;;;;;;8.00;6.57;;;9.30;99.90;;;;;;5064469;28;20462;-45
2024/03/08 04:55:41;;;;;;;6.70;5.70;;;9.30;99.90;;;;;;5066714;28;20461;-47
2024/03/08 04:58:13;;;;;;;8.00;7.20;;;9.30;99.90;;;;;;5067953;28;20954;-46
2024/03/08 05:00:42;;;;;;;8.10;6.90;;;9.30;99.90;;;;;;5066265;28;20431;-44
2024/03/08 05:03:12;;;;;;;6.40;5.80;;;9.30;99.90;;;;;;5062458;28;20458;-45
2024/03/08 05:05:42;;;;;;;6.90;6.20;;;9.30;99.90;;;;;;5061134;28;20542;-46
2024/03/08 05:08:12;;;;;;;7.23;6.50;;;9.30;99.90;;;;;;5068031;28;20492;-45
2024/03/08 05:10:42;;;;;;;6.83;6.10;;;9.30;99.90;;;;;;5065056;28;20439;-46
2024/03/08 05:13:13;;;;;;;8.10;6.90;;;9.20;99.90;;;;;;5063904;28;20465;-46
2024/03/08 05:15:42;;;;;;;6.87;6.07;;;9.20;99.90;;;;;;5072457;28;20516;-47
2024/03/08 05:18:14;;;;;;;6.60;5.90;;;9.20;99.90;;;;;;5070980;28;20441;-45
2024/03/08 05:20:42;;;;;;;8.07;7.27;;;9.20;99.90;;;;;;5064175;28;20443;-45
2024/03/08 05:23:12;;;;;;;9.17;7.20;;;9.20;99.90;;;;;;5066358;28;20466;-46
2024/03/08 05:25:42;;;;;;;7.10;6.20;;;9.20;99.90;;;;;;5060689;28;20451;-48
2024/03/08 05:28:12;;;;;;;9.00;5.80;;;9.20;99.90;;;;;;5061454;28;20948;-45
2024/03/08 05:30:42;;;;;;;7.90;6.80;;;9.20;99.90;;;;;;5059770;28;20558;-46
2024/03/08 05:33:14;;;;;;;6.93;5.83;;;9.20;99.90;;;;;;5065206;28;20424;-48
2024/03/08 05:35:43;;;;;;;7.53;6.30;;;9.20;99.90;;;;;;5062608;28;20470;-46
2024/03/08 05:38:12;;;;;;;7.37;6.30;;;9.20;99.90;;;;;;5063369;28;20426;-45
2024/03/08 05:40:43;;;;;;;6.63;5.90;;;9.20;99.90;;;;;;5062059;28;20509;-46
2024/03/08 05:43:12;;;;;;;7.27;6.13;;;9.20;99.90;;;;;;5064309;28;20459;-48
2024/03/08 05:45:42;;;;;;;8.57;6.03;;;9.20;99.90;;;;;;5066566;28;20453;-48
2024/03/08 05:48:12;;;;;;;7.43;6.37;;;9.10;99.90;;;;;;5065120;28;20419;-47
2024/03/08 05:50:44;;;;;;;7.57;6.00;;;9.20;99.90;;;;;;5068912;28;20846;-44
2024/03/08 05:53:13;;;;;;;7.07;6.37;;;9.20;99.90;;;;;;5062798;28;20419;-46
2024/03/08 05:55:42;;;;;;;7.13;6.00;;;9.10;99.90;;;;;;5067143;28;20488;-45
2024/03/08 05:58:13;;;;;;;7.30;6.07;;;9.20;99.90;;;;;;5061709;28;21137;-45
2024/03/08 06:00:42;;;;;;;5.93;5.23;;;9.10;99.90;;;;;;5063650;28;20439;-45
2024/03/08 06:03:11;;;;;;;8.13;7.30;;;9.10;99.90;;;;;;5066845;28;20557;-45
2024/03/08 06:05:41;;;;;;;8.13;7.30;;;9.10;99.90;;;;;;5063715;28;20511;-50
2024/03/08 06:08:10;;;;;;;7.27;6.20;;;9.10;99.90;;;;;;5061821;28;20978;-45
2024/03/08 06:10:42;;;;;;;8.13;6.23;;;9.10;99.90;;;;;;5068101;28;20522;-46
2024/03/08 06:13:11;;;;;;;7.90;6.00;;;9.10;99.90;;;;;;5061520;28;20974;-46
2024/03/08 06:15:42;;;;;;;7.30;6.13;;;9.10;99.90;;;;;;5067475;28;21002;-47
2024/03/08 06:18:11;;;;;;;6.40;5.70;;;9.10;99.90;;;;;;5066965;28;20426;-45
2024/03/08 06:20:43;;;;;;;6.33;5.73;;;9.10;99.90;;;;;;5060843;28;20995;-45
2024/03/08 06:23:12;;;;;;;8.30;7.00;;;9.10;99.90;;;;;;5064825;28;21030;-45
2024/03/08 06:25:42;;;;;;;6.73;6.00;;;9.10;99.90;;;;;;5065969;28;20465;-47
2024/03/08 06:28:12;;;;;;;8.00;6.90;;;9.10;99.90;;;;;;5064837;28;20426;-45
2024/03/08 06:30:43;;;;;;;8.03;6.47;;;9.10;99.90;;;;;;5063789;28;20477;-45
2024/03/08 06:33:12;;;;;;;6.60;5.63;;;9.10;99.90;;;;;;5062791;28;20427;-45
2024/03/08 06:35:41;;;;;;;6.50;5.60;;;9.00;99.90;;;;;;5061287;28;20458;-48
2024/03/08 06:38:12;;;;;;;7.50;6.27;;;9.00;99.90;;;;;;5044838;28;20438;-44
2024/03/08 06:40:42;;;;;;;7.60;6.47;;;9.10;99.90;;;;;;5060741;28;20501;-47
2024/03/08 06:43:15;;;;;;;8.87;7.10;;;9.00;99.90;;;;;;5066479;28;20509;-47
2024/03/08 06:45:49;;;;;;;8.67;7.10;;;9.00;99.90;;;;;;5062982;28;20453;-46
2024/03/08 06:48:17;;;;;;;8.80;6.93;;;9.00;99.90;;;;;;5064517;28;20965;-45
2024/03/08 06:50:47;;;;;;;8.00;7.20;;;9.00;99.90;;;;;;5064621;28;20446;-45
2024/03/08 06:53:18;;;;;;;11.57;6.93;;;9.00;99.90;;;;;;5067738;28;20427;-45
2024/03/08 06:55:52;;;;;;;8.37;6.90;;;9.00;99.90;;;;;;5067591;28;20979;-45
2024/03/08 06:58:24;;;;;;;8.90;6.57;;;9.00;99.90;;;;;;5062590;28;20464;-46
2024/03/08 07:00:58;;;;;;;7.37;5.87;;;9.00;99.90;;;;;;5060603;28;20447;-46
2024/03/08 07:03:29;;;;;;;7.17;5.47;;;9.00;99.90;;;;;;5063542;28;20426;-45
2024/03/08 07:05:58;;;;;;;8.90;6.37;;;9.00;99.90;;;;;;5064695;28;20878;-47
2024/03/08 07:08:27;;;;;;;9.47;7.57;;;9.00;99.90;;;;;;5063624;28;20441;-45
2024/03/08 07:10:55;;;;;;;8.87;6.27;;;9.00;99.90;;;;;;5062744;28;20431;-45
2024/03/08 07:13:24;;;;;;;8.00;7.00;;;9.00;99.90;;;;;;5054748;28;20455;-45
2024/03/08 07:15:59;;;;;;;8.50;6.33;;;9.00;99.90;;;;;;5062569;28;20457;-44
2024/03/08 07:18:27;;;;;;;8.43;6.63;;;8.90;99.90;;;;;;5059068;28;20920;-44
2024/03/08 07:20:57;;;;;;;8.87;7.67;;;9.00;99.90;;;;;;5059296;28;20453;-46
2024/03/08 07:26:16;;;;;;;10.30;7.40;;;8.90;99.90;;;;;;5064195;28;20459;-45
2024/03/08 07:28:45;;;;;;;8.10;6.67;;;8.90;99.90;;;;;;5061018;28;20439;-44
2024/03/08 07:31:23;;;;;;;10.07;7.83;;;8.90;99.90;;;;;;5059122;28;20457;-44
2024/03/08 07:33:54;;;;;;;6.80;5.90;;;8.90;99.90;;;;;;5059802;28;20446;-46
2024/03/08 07:36:23;;;;;;;8.93;7.33;;;8.90;99.90;;;;;;5063611;28;20832;-46
2024/03/08 07:38:55;;;;;;;7.90;7.07;;;8.90;99.90;;;;;;5060517;28;20885;-45
2024/03/08 07:41:23;;;;;;;11.70;7.87;;;8.90;99.90;;;;;;5039377;28;20501;-46
2024/03/08 07:43:52;;;;;;;9.30;7.53;;;8.90;99.90;;;;;;5064712;28;20816;-45
2024/03/08 07:46:23;;;;;;;7.53;6.73;;;8.90;99.90;;;;;;5062600;28;20450;-44
2024/03/08 07:48:52;;;;;;;9.17;7.43;;;8.90;99.90;;;;;;5063675;28;20809;-47
2024/03/08 07:51:21;;;;;;;10.53;8.37;;;8.90;99.90;;;;;;5060270;28;20461;-45
2024/03/08 07:53:50;;;;;;;9.03;7.30;;;8.90;99.90;;;;;;5065530;28;20847;-45
2024/03/08 07:56:19;;;;;;;8.10;6.50;;;8.90;99.90;;;;;;5063740;28;20537;-47
2024/03/08 07:58:47;;;;;;;11.53;7.90;;;8.90;99.90;;;;;;5057867;28;20443;-45
2024/03/08 08:01:20;;;;;;;9.27;7.50;;;8.90;99.90;;;;;;5065727;28;20826;-46
2024/03/08 08:03:49;;;;;;;8.57;6.30;;;8.90;99.90;;;;;;5059890;28;20966;-46
2024/03/08 08:06:18;;;;;;;9.90;8.43;;;8.90;99.90;;;;;;5063161;28;20458;-44
2024/03/08 08:08:47;;;;;;;8.80;7.10;;;8.90;99.90;;;;;;5058575;28;20454;-44
2024/03/08 08:11:16;;;;;;;10.03;7.30;;;8.90;99.90;;;;;;5066290;28;20466;-46
2024/03/08 08:13:44;;;;;;;10.10;8.50;;;8.90;99.90;;;;;;5060396;28;20439;-46
2024/03/08 08:16:16;;;;;;;8.30;7.37;;;8.90;99.90;;;;;;5048034;28;20789;-45
2024/03/08 08:18:46;;;;;;;8.47;7.13;;;8.90;99.90;;;;;;5059792;28;20429;-46
2024/03/08 08:21:18;;;;;;;10.13;7.37;;;9.00;99.90;;;;;;5063268;28;20807;-44
2024/03/08 08:23:46;;;;;;;9.27;7.33;;;8.90;99.90;;;;;;5064844;28;20964;-48
2024/03/08 08:26:17;;;;;;;7.47;5.97;;;9.00;99.90;;;;;;5062900;28;20466;-46
2024/03/08 08:28:47;;;;;;;9.70;8.37;;;9.00;99.90;;;;;;5064195;28;20891;-45
2024/03/08 08:31:15;;;;;;;6.97;6.20;;;9.00;99.90;;;;;;5062309;28;20538;-45
2024/03/08 08:33:43;;;;;;;8.27;6.87;;;9.00;99.90;;;;;;5065302;28;20482;-44
2024/03/08 08:36:13;;;;;;;8.17;6.53;;;9.00;99.90;;;;;;5065681;28;20442;-46
2024/03/08 08:38:43;;;;;;;8.33;7.40;;;9.00;99.90;;;;;;5061316;28;20477;-46
2024/03/08 08:41:17;;;;;;;8.27;7.37;;;9.00;99.90;;;;;;5060930;28;20438;-46
2024/03/08 08:43:46;;;;;;;8.23;6.60;;;9.00;99.90;;;;;;5064532;28;20450;-44
2024/03/08 08:46:30;;;;;;;10.87;6.73;;;9.00;99.90;;;;;;5064313;28;20469;-46
2024/03/08 08:48:59;;;;;;;9.73;7.07;;;9.00;99.90;;;;;;5059050;28;20932;-50
2024/03/08 08:51:27;;;;;;;11.30;8.10;;;9.00;99.90;;;;;;5058100;28;20793;-44
2024/03/08 08:53:58;;;;;;;9.57;7.30;;;9.00;99.90;;;;;;5057600;28;20455;-44
2024/03/08 08:56:28;;;;;;;9.73;8.10;;;9.00;99.90;;;;;;5057363;28;20438;-47
2024/03/08 08:58:57;;;;;;;9.00;7.83;;;9.00;99.90;;;;;;5059958;28;20550;-45
2024/03/08 09:01:25;;;;;;;8.50;7.60;;;9.00;99.90;;;;;;5059724;28;20427;-46
2024/03/08 09:03:54;;;;;;;9.33;7.80;;;9.00;99.90;;;;;;5054305;28;20449;-45
2024/03/08 09:06:22;;;;;;;8.60;7.47;;;9.10;99.90;;;;;;5069018;28;21005;-45
2024/03/08 09:08:50;;;;;;;10.60;8.43;;;9.00;99.90;;;;;;5064953;28;20435;-47
2024/03/08 09:11:20;;;;;;;9.60;7.50;;;9.10;99.90;;;;;;5064364;28;20493;-45
2024/03/08 09:13:48;;;;;;;8.40;7.53;;;9.10;99.90;;;;;;5062335;28;20450;-44
2024/03/08 09:16:17;;;;;;;9.07;7.97;;;9.00;99.90;;;;;;5064456;28;20818;-44
2024/03/08 09:18:45;;;;;;;8.07;7.10;;;9.00;99.90;;;;;;5065630;28;20504;-50
2024/03/08 09:21:15;;;;;;;9.87;7.70;;;9.10;99.90;;;;;;5063180;28;20944;-45
2024/03/08 09:23:44;;;;;;;8.30;7.40;;;9.10;99.90;;;;;;5070090;28;20484;-45
2024/03/08 09:26:15;;;;;;;8.77;7.03;;;9.10;99.90;;;;;;5065051;28;20480;-46
2024/03/08 09:28:57;;;;;;;10.80;8.87;;;9.10;99.90;;;;;;5064319;28;20442;-47
2024/03/08 09:31:27;;;;;;;9.83;8.43;;;9.10;99.90;;;;;;5068530;28;20496;-45
2024/03/08 09:33:57;;;;;;;10.50;9.07;;;9.10;99.90;;;;;;5066363;28;20461;-48
2024/03/08 09:36:25;;;;;;;10.10;8.00;;;9.10;99.90;;;;;;5067846;28;20529;-45
2024/03/08 09:38:54;;;;;;;9.90;7.67;;;9.10;99.90;;;;;;5062438;28;20496;-46
2024/03/08 09:41:22;;;;;;;9.00;7.43;;;9.10;99.90;;;;;;5063161;28;20449;-47
2024/03/08 09:43:50;;;;;;;9.43;8.03;;;9.10;99.90;;;;;;5062880;28;20442;-44
2024/03/08 09:46:22;;;;;;;12.73;7.80;;;9.10;99.90;;;;;;5049481;28;20462;-45
2024/03/08 09:48:51;;;;;;;9.40;7.90;;;9.10;99.90;;;;;;5059896;28;20474;-46
2024/03/08 09:51:25;;;;;;;10.60;8.50;;;9.10;99.90;;;;;;5064607;28;20446;-46
2024/03/08 09:53:54;;;;;;;9.93;8.17;;;9.10;99.90;;;;;;5064567;28;20814;-44
2024/03/08 09:56:24;;;;;;;10.43;8.30;;;9.10;99.90;;;;;;5060558;28;21021;-49
2024/03/08 09:59:14;;;;;;;10.00;8.90;;;9.10;99.90;;;;;;5066134;28;20973;-45
2024/03/08 10:01:44;;;;;;;9.27;8.13;;;9.10;99.90;;;;;;5067128;28;20937;-44
2024/03/08 10:04:13;;;;;;;10.60;7.67;;;9.10;99.90;;;;;;5063528;28;20819;-51
2024/03/08 10:06:41;;;;;;;10.27;8.70;;;9.10;99.90;;;;;;5062562;28;20470;-47
2024/03/08 10:09:10;;;;;;;11.13;8.30;;;9.10;99.90;;;;;;5067750;28;20453;-48
2024/03/08 10:11:42;;;;;;;9.27;7.80;;;9.10;99.90;;;;;;5063632;28;20436;-46
2024/03/08 10:14:11;;;;;;;11.50;8.20;;;9.10;99.90;;;;;;5064117;28;20432;-45
2024/03/08 10:16:40;;;;;;;10.13;7.90;;;9.10;99.90;;;;;;5069598;28;20423;-47
2024/03/08 10:19:12;;;;;;;9.87;7.43;;;9.10;99.90;;;;;;5058954;28;20446;-45
2024/03/08 10:21:49;;;;;;;10.30;8.10;;;9.10;99.90;;;;;;5064961;28;20978;-47
2024/03/08 10:24:18;;;;;;;10.23;8.37;;;9.10;99.90;;;;;;5063308;28;20443;-47
2024/03/08 10:26:47;;;;;;;9.83;7.80;;;9.10;99.90;;;;;;5070641;28;20450;-49
2024/03/08 10:29:17;;;;;;;10.40;7.50;;;9.10;99.90;;;;;;5066421;28;20808;-45
2024/03/08 10:31:45;;;;;;;12.40;8.93;;;9.10;99.90;;;;;;5071226;28;20429;-46
2024/03/08 10:34:17;;;;;;;9.77;8.33;;;9.10;99.90;;;;;;5065348;28;20438;-50
2024/03/08 10:36:49;;;;;;;8.20;7.10;;;9.00;99.90;;;;;;5066124;28;20436;-48
2024/03/08 10:39:25;;;;;;;9.87;8.80;;;9.10;99.90;;;;;;5062170;28;20943;-48
2024/03/08 10:42:00;;;;;;;8.77;7.87;;;9.00;99.90;;;;;;5064010;28;20858;-47
2024/03/08 10:44:47;;;;;;;10.13;9.03;;;9.10;99.90;;;;;;5062774;28;20457;-45
2024/03/08 10:47:20;;;;;;;10.40;8.00;;;9.00;99.90;;;;;;5037937;28;20464;-47
2024/03/08 10:50:09;;;;;;;10.27;8.30;;;9.10;99.90;;;;;;5067413;28;20812;-46
2024/03/08 10:52:39;;;;;;;12.80;8.57;;;9.00;99.90;;;;;;5068197;28;20423;-46
2024/03/08 10:55:12;;;;;;;11.57;8.80;;;9.00;99.90;;;;;;5063383;28;20869;-48
2024/03/08 10:57:42;;;;;;;14.47;9.17;;;9.00;99.90;;;;;;5067576;28;20517;-48
2024/03/08 11:00:14;;;;;;;11.17;8.47;;;9.00;99.90;;;;;;5064802;28;20438;-46
2024/03/08 11:02:44;;;;;;;10.13;8.93;;;9.00;99.90;;;;;;5061525;28;20443;-46
2024/03/08 11:05:35;;;;;;;11.63;9.27;;;9.00;99.90;;;;;;5069425;28;20466;-44
2024/03/08 11:08:04;;;;;;;12.67;8.70;;;9.00;99.90;;;;;;5066188;28;20442;-45
2024/03/08 11:10:33;;;;;;;9.40;7.80;;;9.00;99.90;;;;;;5070206;28;20468;-47
2024/03/08 11:13:03;;;;;;;12.17;9.00;;;9.00;99.90;;;;;;5067062;28;20457;-46
2024/03/08 11:15:31;;;;;;;12.20;9.13;;;9.00;99.90;;;;;;5066676;28;20481;-48
2024/03/08 11:18:00;;;;;;;9.50;7.93;;;9.00;99.90;;;;;;5069549;28;20410;-45
2024/03/08 11:20:35;;;;;;;12.13;9.37;;;9.00;99.90;;;;;;5067655;28;20499;-46
2024/03/08 11:23:06;;;;;;;10.57;8.40;;;9.00;99.90;;;;;;5062377;28;20418;-46
2024/03/08 11:25:45;;;;;;;12.47;8.97;;;9.00;99.90;;;;;;5069310;28;21152;-46
2024/03/08 11:28:20;;;;;;;12.67;8.67;;;9.00;99.90;;;;;;5064930;28;20529;-47
2024/03/08 11:31:23;;;;;;;10.10;7.60;;;9.00;99.90;;;;;;5069582;28;20528;-45
2024/03/08 11:33:53;;;;;;;11.20;9.47;;;9.00;99.90;;;;;;5065193;28;20454;-47
2024/03/08 11:36:24;;;;;;;10.10;8.00;;;9.00;99.90;;;;;;5065883;28;20442;-48
2024/03/08 11:38:59;;;;;;;13.07;9.70;;;9.00;99.90;;;;;;5069824;28;20453;-46
2024/03/08 11:41:27;;;;;;;9.00;8.07;;;9.00;99.90;;;;;;5069996;28;20430;-45
2024/03/08 11:44:06;;;;;;;8.50;7.00;;;9.00;99.90;;;;;;5065876;28;20443;-46
2024/03/08 11:46:35;;;;;;;12.13;10.40;;;9.00;99.90;;;;;;5052668;28;20560;-45
2024/03/08 11:49:05;;;;;;;13.40;8.70;;;9.00;99.90;;;;;;5068438;28;20496;-45
2024/03/08 11:51:36;;;;;;;11.00;8.90;;;9.00;99.90;;;;;;5069707;28;20470;-45
2024/03/08 11:54:06;;;;;;;11.20;7.97;;;9.00;99.90;;;;;;5063491;28;20496;-45
2024/03/08 11:56:34;;;;;;;10.33;8.17;;;9.00;99.90;;;;;;5066333;28;20866;-46
2024/03/08 11:59:02;;;;;;;9.70;7.20;;;9.00;99.90;;;;;;5066035;28;20457;-46
2024/03/08 12:01:31;;;;;;;11.40;7.90;;;9.00;99.90;;;;;;5066316;28;20800;-45
2024/03/08 12:04:01;;;;;;;12.00;7.63;;;9.00;99.90;;;;;;5066410;28;20529;-46
2024/03/08 12:06:40;;;;;;;10.83;9.17;;;9.00;99.90;;;;;;5066868;28;20854;-47
2024/03/08 12:09:10;;;;;;;10.77;9.10;;;9.00;99.90;;;;;;5067856;28;20878;-46
2024/03/08 12:11:39;;;;;;;10.80;7.70;;;9.00;99.90;;;;;;5064243;28;20531;-46
2024/03/08 12:14:07;;;;;;;11.03;8.50;;;9.00;99.90;;;;;;5060627;28;20464;-47
2024/03/08 12:16:37;;;;;;;11.53;9.20;;;9.00;99.90;;;;;;5066802;28;20458;-46
2024/03/08 12:19:09;;;;;;;9.63;8.53;;;9.00;99.90;;;;;;5060961;28;20438;-47
2024/03/08 12:21:46;;;;;;;10.83;8.60;;;9.00;99.90;;;;;;5059161;28;20443;-47
2024/03/08 12:24:19;;;;;;;9.53;7.60;;;9.00;99.90;;;;;;5066260;28;20956;-49
2024/03/08 12:26:48;;;;;;;9.30;7.30;;;9.00;99.90;;;;;;5068461;28;20455;-49
2024/03/08 12:29:22;;;;;;;10.93;8.10;;;9.00;99.90;;;;;;5063295;28;20521;-47
2024/03/08 12:31:58;;;;;;;8.53;7.20;;;9.00;99.90;;;;;;5069540;28;20434;-45
2024/03/08 12:34:28;;;;;;;8.53;7.20;;;9.00;99.90;;;;;;5066688;28;20442;-44
2024/03/08 12:36:59;;;;;;;9.60;7.93;;;9.00;99.90;;;;;;5065585;28;20435;-45
2024/03/08 12:39:27;;;;;;;10.87;8.60;;;9.00;99.90;;;;;;5069570;28;20449;-45
2024/03/08 12:41:57;;;;;;;9.47;7.43;;;9.00;99.90;;;;;;5070477;28;20484;-44
2024/03/08 12:44:28;;;;;;;10.00;8.33;;;9.00;99.90;;;;;;5066234;28;20426;-45
2024/03/08 12:46:58;;;;;;;9.87;8.87;;;9.00;99.90;;;;;;5069906;28;20499;-45
2024/03/08 12:49:27;;;;;;;9.40;8.07;;;9.00;99.90;;;;;;5066089;28;20988;-46
2024/03/08 12:51:58;;;;;;;9.37;7.20;;;9.00;99.90;;;;;;5072891;28;20441;-45
2024/03/08 12:54:27;;;;;;;9.87;8.30;;;9.00;99.90;;;;;;5072811;28;20839;-45
2024/03/08 12:56:58;;;;;;;8.77;7.83;;;9.00;99.90;;;;;;5051454;28;20426;-45
2024/03/08 12:59:26;;;;;;;10.20;7.53;;;9.00;99.90;;;;;;5069391;28;20441;-44
2024/03/08 13:01:59;;;;;;;7.77;6.53;;;9.00;99.90;;;;;;5073189;28;20430;-45
2024/03/08 13:04:28;;;;;;;8.87;7.60;;;9.00;99.90;;;;;;5045279;28;20448;-45
2024/03/08 13:06:58;;;;;;;9.33;8.10;;;9.00;99.90;;;;;;5064043;28;20458;-44
2024/03/08 13:09:27;;;;;;;9.97;8.83;;;9.00;99.90;;;;;;5064689;28;20493;-45
2024/03/08 13:11:58;;;;;;;9.50;7.37;;;9.00;99.90;;;;;;5065558;28;20742;-45
2024/03/08 13:14:27;;;;;;;10.70;7.77;;;9.00;99.90;;;;;;5064713;28;20447;-45